Terminal Aerodrome Forecast
Issued by NWS

Home | Current Version | Previous Version | Text Only | Print | Product List | Glossary On
Versions: 1 2 3 4 5 6 7 8 9 10 11 12 13 14 15 16 17 18 19 20 21
000
FTUS43 KLSX 201500 AAB
TAFUIN
TAF AMD
KUIN 201546Z 2016/2112 11006KT P6SM SCT009 OVC120
      TEMPO 2016/2017 BKN007
     FM201700 21008KT P6SM FEW040 SCT250
     FM210400 17005KT P6SM BKN090=

USA.gov is the U.S. government's official web portal to all federal, state and local government web resources and services.